Time;durP1;ratioP1;P1;durP2;ratioP2;P2;SDS_P1;SDS_P2;PMS_P1;PMS_P2;Temp;Humidity;BMP_temperature;BMP_pressure;BME280_temperature;BME280_humidity;BME280_pressure;Samples;Min_cycle;Max_cycle;Signal;HPM_P1;HPM_P2
2021/04/17 00:02:09;;;;;;;11.20;8.07;;;;;;;;;;5137429;27;20042;-65
2021/04/17 00:04:38;;;;;;;9.88;7.40;;;;;;;;;;5155579;27;20075;-65
2021/04/17 00:07:04;;;;;;;11.05;7.68;;;;;;;;;;5155627;27;20038;-65
2021/04/17 00:09:29;;;;;;;9.25;7.63;;;;;;;;;;5136842;27;20485;-65
2021/04/17 00:11:56;;;;;;;10.00;8.00;;;;;;;;;;5155630;27;20015;-65
2021/04/17 00:14:24;;;;;;;10.45;7.57;;;;;;;;;;5136932;27;20079;-65
2021/04/17 00:16:49;;;;;;;9.15;7.53;;;;;;;;;;5137388;27;20029;-65
2021/04/17 00:19:15;;;;;;;8.63;7.60;;;;;;;;;;5155962;27;20027;-65
2021/04/17 00:21:41;;;;;;;10.25;7.82;;;;;;;;;;5137316;27;20018;-65
2021/04/17 00:24:07;;;;;;;8.27;6.88;;;;;;;;;;5156007;27;20037;-65
2021/04/17 00:26:34;;;;;;;7.88;7.07;;;;;;;;;;5155826;27;20037;-65
2021/04/17 00:29:02;;;;;;;8.10;6.95;;;;;;;;;;5155690;27;20086;-64
2021/04/17 00:31:27;;;;;;;7.45;6.72;;;;;;;;;;5155689;27;20094;-64
2021/04/17 00:33:53;;;;;;;8.90;6.47;;;;;;;;;;5155472;27;20125;-65
2021/04/17 00:36:19;;;;;;;8.05;6.50;;;;;;;;;;5155755;27;20072;-64
2021/04/17 00:38:46;;;;;;;8.05;5.93;;;;;;;;;;5155430;27;20026;-65
2021/04/17 00:41:11;;;;;;;6.70;5.90;;;;;;;;;;5155341;27;20089;-64
2021/04/17 00:43:38;;;;;;;6.78;5.95;;;;;;;;;;5155558;27;20095;-64
2021/04/17 00:46:03;;;;;;;6.38;5.78;;;;;;;;;;5136155;27;20015;-64
2021/04/17 00:48:29;;;;;;;6.20;5.60;;;;;;;;;;5155207;27;20041;-64
2021/04/17 00:50:54;;;;;;;8.05;5.90;;;;;;;;;;5155483;27;20011;-65
2021/04/17 00:53:21;;;;;;;6.72;5.95;;;;;;;;;;5136699;27;20480;-64
2021/04/17 00:55:49;;;;;;;6.45;5.22;;;;;;;;;;5120184;27;20142;-64
2021/04/17 00:58:15;;;;;;;7.15;5.40;;;;;;;;;;5155474;27;20039;-63
2021/04/17 01:00:40;;;;;;;5.78;5.20;;;;;;;;;;5135998;27;20122;-63
2021/04/17 01:03:18;;;;;;;7.43;5.88;;;;;;;;;;5136634;27;20034;-63
2021/04/17 01:05:45;;;;;;;6.88;5.18;;;;;;;;;;5155245;27;20039;-63
2021/04/17 01:08:17;;;;;;;5.97;4.78;;;;;;;;;;5155400;27;20026;-63
2021/04/17 01:10:45;;;;;;;5.93;4.95;;;;;;;;;;5155240;27;20101;-63
2021/04/17 01:13:11;;;;;;;5.82;4.90;;;;;;;;;;5155557;27;20018;-63
2021/04/17 01:15:37;;;;;;;5.65;4.80;;;;;;;;;;5154680;27;20030;-63
2021/04/17 01:18:03;;;;;;;5.80;4.75;;;;;;;;;;5136642;27;20049;-63
2021/04/17 01:20:37;;;;;;;4.97;4.50;;;;;;;;;;5155069;27;20084;-63
2021/04/17 01:23:12;;;;;;;5.25;4.53;;;;;;;;;;5155289;27;20023;-63
2021/04/17 01:25:47;;;;;;;5.90;4.57;;;;;;;;;;5154917;27;20119;-63
2021/04/17 01:28:13;;;;;;;5.53;4.38;;;;;;;;;;5154881;27;20157;-63
2021/04/17 01:30:39;;;;;;;4.80;4.30;;;;;;;;;;5154477;27;20525;-63
2021/04/17 01:33:05;;;;;;;4.38;3.97;;;;;;;;;;5135727;27;20118;-63
2021/04/17 01:35:31;;;;;;;4.43;4.05;;;;;;;;;;5154329;27;20358;-63
2021/04/17 01:37:56;;;;;;;4.13;3.83;;;;;;;;;;5154326;27;20019;-63
2021/04/17 01:40:26;;;;;;;4.50;4.10;;;;;;;;;;5154305;27;20026;-63
2021/04/17 01:42:53;;;;;;;5.20;4.70;;;;;;;;;;5154368;27;20042;-63
2021/04/17 01:45:20;;;;;;;5.22;4.72;;;;;;;;;;5154179;27;20018;-64
2021/04/17 01:47:47;;;;;;;5.30;4.80;;;;;;;;;;5154325;27;20072;-63
2021/04/17 01:50:13;;;;;;;6.78;5.30;;;;;;;;;;5135526;27;20031;-63
2021/04/17 01:52:40;;;;;;;7.03;5.68;;;;;;;;;;5154124;27;20465;-63
2021/04/17 01:55:06;;;;;;;6.95;6.05;;;;;;;;;;5154744;27;20011;-63
2021/04/17 01:57:34;;;;;;;7.22;6.15;;;;;;;;;;5155426;27;20106;-63
2021/04/17 01:59:59;;;;;;;8.35;5.80;;;;;;;;;;5158147;27;20521;-64
2021/04/17 02:02:25;;;;;;;6.40;5.80;;;;;;;;;;5158882;27;20038;-63
2021/04/17 02:04:53;;;;;;;7.32;5.95;;;;;;;;;;5139916;27;20046;-63
2021/04/17 02:07:19;;;;;;;6.65;5.85;;;;;;;;;;5122773;27;20122;-63
2021/04/17 02:09:44;;;;;;;6.78;6.18;;;;;;;;;;5139524;27;20152;-63
2021/04/17 02:12:10;;;;;;;6.55;5.90;;;;;;;;;;5158333;27;20035;-63
2021/04/17 02:14:36;;;;;;;6.03;5.53;;;;;;;;;;5158266;27;20029;-64
2021/04/17 02:17:03;;;;;;;5.93;5.20;;;;;;;;;;5158329;27;20019;-64
2021/04/17 02:19:31;;;;;;;6.10;5.53;;;;;;;;;;5158219;27;20031;-63
2021/04/17 02:21:58;;;;;;;5.40;4.97;;;;;;;;;;5139563;27;20113;-64
2021/04/17 02:24:26;;;;;;;5.30;4.85;;;;;;;;;;5158275;27;20030;-64
2021/04/17 02:26:52;;;;;;;5.78;5.25;;;;;;;;;;5139646;27;20495;-64
2021/04/17 02:29:18;;;;;;;5.85;5.35;;;;;;;;;;5157837;27;20098;-64
2021/04/17 02:31:44;;;;;;;7.82;7.03;;;;;;;;;;5157891;27;20339;-64
2021/04/17 02:34:09;;;;;;;7.90;7.10;;;;;;;;;;5158305;27;20389;-64
2021/04/17 02:36:35;;;;;;;8.05;7.20;;;;;;;;;;5139327;27;20114;-63
2021/04/17 02:39:00;;;;;;;7.93;7.13;;;;;;;;;;5139054;27;20058;-63
2021/04/17 02:41:26;;;;;;;8.68;7.47;;;;;;;;;;5157428;27;20030;-63
2021/04/17 02:43:51;;;;;;;7.97;7.18;;;;;;;;;;5157480;27;20105;-64
2021/04/17 02:46:17;;;;;;;8.38;7.50;;;;;;;;;;5157290;27;20026;-64
2021/04/17 02:48:42;;;;;;;8.63;7.68;;;;;;;;;;5157309;27;20423;-64
2021/04/17 02:51:08;;;;;;;8.88;7.05;;;;;;;;;;5157279;27;20072;-64
2021/04/17 02:53:33;;;;;;;7.78;6.80;;;;;;;;;;5157319;27;20011;-64
2021/04/17 02:55:59;;;;;;;7.75;7.05;;;;;;;;;;5157420;27;20357;-64
2021/04/17 02:58:24;;;;;;;6.85;6.18;;;;;;;;;;5157822;27;20014;-64
2021/04/17 03:00:50;;;;;;;7.47;6.70;;;;;;;;;;5157069;27;20070;-63
2021/04/17 03:03:16;;;;;;;7.03;6.32;;;;;;;;;;5138268;27;20393;-63
2021/04/17 03:05:41;;;;;;;6.32;5.75;;;;;;;;;;5138553;27;20077;-63
2021/04/17 03:08:07;;;;;;;7.68;6.97;;;;;;;;;;5156964;27;20023;-63
2021/04/17 03:10:35;;;;;;;6.28;5.68;;;;;;;;;;5156669;27;20023;-63
2021/04/17 03:13:00;;;;;;;7.28;6.65;;;;;;;;;;5157293;27;20099;-64
2021/04/17 03:15:26;;;;;;;7.50;6.70;;;;;;;;;;5138211;27;20072;-63
2021/04/17 03:17:51;;;;;;;6.50;6.00;;;;;;;;;;5138159;27;20101;-63
2021/04/17 03:20:17;;;;;;;6.97;6.32;;;;;;;;;;5156539;27;20030;-63
2021/04/17 03:22:42;;;;;;;6.70;6.10;;;;;;;;;;5156531;27;20029;-63
2021/04/17 03:25:10;;;;;;;7.30;6.68;;;;;;;;;;5138063;27;20023;-63
2021/04/17 03:27:36;;;;;;;7.35;6.65;;;;;;;;;;5156554;27;20018;-63
2021/04/17 03:30:03;;;;;;;7.85;7.05;;;;;;;;;;5156188;27;20389;-63
2021/04/17 03:32:28;;;;;;;7.50;6.88;;;;;;;;;;5137909;27;20441;-63
2021/04/17 03:34:54;;;;;;;7.03;6.40;;;;;;;;;;5137727;27;20038;-63
2021/04/17 03:37:19;;;;;;;7.28;6.38;;;;;;;;;;5156646;27;20007;-63
2021/04/17 03:39:45;;;;;;;7.50;6.47;;;;;;;;;;5156812;27;20034;-63
2021/04/17 03:42:11;;;;;;;8.15;6.68;;;;;;;;;;5156789;27;20018;-63
2021/04/17 03:44:37;;;;;;;8.68;6.68;;;;;;;;;;5156718;27;20027;-63
2021/04/17 03:47:02;;;;;;;9.52;7.03;;;;;;;;;;5156531;27;20067;-63
2021/04/17 03:49:28;;;;;;;7.32;6.63;;;;;;;;;;5156360;27;20122;-63
2021/04/17 03:51:53;;;;;;;7.68;6.93;;;;;;;;;;5137938;27;20038;-63
2021/04/17 03:54:19;;;;;;;7.00;6.28;;;;;;;;;;5156631;27;20062;-63
2021/04/17 03:56:44;;;;;;;7.47;6.47;;;;;;;;;;5137878;27;20076;-63
2021/04/17 03:59:10;;;;;;;7.60;6.18;;;;;;;;;;5137203;27;20034;-63
2021/04/17 04:01:35;;;;;;;6.53;5.85;;;;;;;;;;5156094;27;20051;-63
2021/04/17 04:04:01;;;;;;;8.27;7.40;;;;;;;;;;5155820;27;20031;-63
2021/04/17 04:06:26;;;;;;;9.27;8.32;;;;;;;;;;5155719;27;20099;-64
2021/04/17 04:08:52;;;;;;;9.55;7.93;;;;;;;;;;5137879;27;20026;-64
2021/04/17 04:11:17;;;;;;;8.68;7.82;;;;;;;;;;5156195;27;20011;-64
2021/04/17 04:13:43;;;;;;;10.60;8.77;;;;;;;;;;5137704;27;20113;-64
2021/04/17 04:16:08;;;;;;;13.00;10.25;;;;;;;;;;5137862;27;20015;-63
2021/04/17 04:18:34;;;;;;;12.32;10.50;;;;;;;;;;5156183;27;20023;-63
2021/04/17 04:20:59;;;;;;;12.10;10.23;;;;;;;;;;5156062;27;20079;-63
2021/04/17 04:23:25;;;;;;;12.60;10.73;;;;;;;;;;5155919;27;20041;-63
2021/04/17 04:25:50;;;;;;;13.10;10.55;;;;;;;;;;5137584;27;20053;-63
2021/04/17 04:28:16;;;;;;;11.93;10.02;;;;;;;;;;5155848;27;20469;-63
2021/04/17 04:30:41;;;;;;;12.60;9.95;;;;;;;;;;5155776;27;20042;-63
2021/04/17 04:33:07;;;;;;;15.10;11.05;;;;;;;;;;5137172;27;20031;-64
2021/04/17 04:35:33;;;;;;;22.27;15.10;;;;;;;;;;5137566;27;20030;-63
2021/04/17 04:37:58;;;;;;;22.40;16.40;;;;;;;;;;5155871;27;20190;-64
2021/04/17 04:40:23;;;;;;;20.60;16.10;;;;;;;;;;5137359;27;20537;-63
2021/04/17 04:42:49;;;;;;;10.35;9.27;;;;;;;;;;5155719;27;20031;-63
2021/04/17 04:45:14;;;;;;;10.55;9.48;;;;;;;;;;5155274;27;20023;-64
2021/04/17 04:47:40;;;;;;;12.93;10.43;;;;;;;;;;5155595;27;20033;-64
2021/04/17 04:50:07;;;;;;;11.45;9.27;;;;;;;;;;5155678;27;20011;-64
2021/04/17 04:52:34;;;;;;;10.48;8.25;;;;;;;;;;5137008;27;20026;-64
2021/04/17 04:54:59;;;;;;;10.95;8.85;;;;;;;;;;5136042;27;20098;-64
2021/04/17 04:57:25;;;;;;;9.40;7.93;;;;;;;;;;5136326;27;20113;-64
2021/04/17 04:59:51;;;;;;;8.25;7.45;;;;;;;;;;5154272;27;20022;-64
2021/04/17 05:02:17;;;;;;;9.70;7.93;;;;;;;;;;5136474;27;20459;-63
2021/04/17 05:04:43;;;;;;;10.90;8.00;;;;;;;;;;5136078;27;20031;-63
2021/04/17 05:07:08;;;;;;;10.65;8.40;;;;;;;;;;5154602;27;20054;-63
2021/04/17 05:09:34;;;;;;;8.80;7.90;;;;;;;;;;5154594;27;20022;-63
2021/04/17 05:11:59;;;;;;;8.77;7.70;;;;;;;;;;5154625;27;20383;-63
2021/04/17 05:14:25;;;;;;;10.63;8.10;;;;;;;;;;5154623;27;20038;-63
2021/04/17 05:16:51;;;;;;;10.23;7.47;;;;;;;;;;5154598;27;20019;-63
2021/04/17 05:19:16;;;;;;;9.45;7.28;;;;;;;;;;5154522;27;20082;-64
2021/04/17 05:21:42;;;;;;;6.68;6.03;;;;;;;;;;5154886;27;20517;-63
2021/04/17 05:24:08;;;;;;;9.10;6.22;;;;;;;;;;5154839;27;20022;-63
2021/04/17 05:26:34;;;;;;;6.93;6.18;;;;;;;;;;5155126;27;20102;-63
2021/04/17 05:29:00;;;;;;;8.40;6.43;;;;;;;;;;5154621;27;20051;-64
2021/04/17 05:31:25;;;;;;;6.70;6.07;;;;;;;;;;5154927;27;20027;-63
2021/04/17 05:33:54;;;;;;;7.22;6.05;;;;;;;;;;5157531;27;20023;-63
2021/04/17 05:36:19;;;;;;;7.60;6.90;;;;;;;;;;5159584;27;20469;-63
2021/04/17 05:38:45;;;;;;;6.78;6.13;;;;;;;;;;5159318;27;20029;-63
2021/04/17 05:41:10;;;;;;;6.47;5.88;;;;;;;;;;5158924;27;20026;-65
2021/04/17 05:43:36;;;;;;;7.50;6.05;;;;;;;;;;5159584;27;20101;-65
2021/04/17 05:46:02;;;;;;;6.95;6.25;;;;;;;;;;5140401;27;20072;-64
2021/04/17 05:48:28;;;;;;;6.32;5.72;;;;;;;;;;5158824;27;20015;-64
2021/04/17 05:50:53;;;;;;;6.10;5.55;;;;;;;;;;5139989;27;20039;-63
2021/04/17 05:53:19;;;;;;;5.68;5.18;;;;;;;;;;5158672;27;20025;-63
2021/04/17 05:55:45;;;;;;;6.63;5.78;;;;;;;;;;5158857;27;20102;-63
2021/04/17 05:58:11;;;;;;;5.88;5.28;;;;;;;;;;5158791;27;20015;-63
2021/04/17 06:00:38;;;;;;;6.15;5.55;;;;;;;;;;5157870;27;20601;-64
2021/04/17 06:03:05;;;;;;;6.22;5.63;;;;;;;;;;5139903;27;20409;-64
2021/04/17 06:05:31;;;;;;;5.82;5.32;;;;;;;;;;5158655;27;20015;-64
2021/04/17 06:07:58;;;;;;;5.95;5.35;;;;;;;;;;5158289;27;20030;-64
2021/04/17 06:10:25;;;;;;;5.55;4.82;;;;;;;;;;5158473;27;20158;-64
2021/04/17 06:12:52;;;;;;;6.32;4.93;;;;;;;;;;5139935;27;20362;-63
2021/04/17 06:15:18;;;;;;;5.85;5.25;;;;;;;;;;5158512;27;20022;-64
2021/04/17 06:17:44;;;;;;;5.07;4.65;;;;;;;;;;5158383;27;20027;-63
2021/04/17 06:20:10;;;;;;;5.20;4.80;;;;;;;;;;5158349;27;20025;-63
2021/04/17 06:22:36;;;;;;;5.15;4.65;;;;;;;;;;5158552;27;20473;-63
2021/04/17 06:25:02;;;;;;;4.82;4.45;;;;;;;;;;5139758;27;20027;-63
2021/04/17 06:27:28;;;;;;;5.80;5.20;;;;;;;;;;5158151;27;20409;-64
2021/04/17 06:29:53;;;;;;;4.95;4.53;;;;;;;;;;5158172;27;20019;-63
2021/04/17 06:32:20;;;;;;;5.60;4.80;;;;;;;;;;5158162;27;20022;-63
2021/04/17 06:34:45;;;;;;;5.15;4.55;;;;;;;;;;5158049;27;20069;-63
2021/04/17 06:37:11;;;;;;;5.03;4.50;;;;;;;;;;5158096;27;20489;-63
2021/04/17 06:39:38;;;;;;;4.18;3.88;;;;;;;;;;5144278;27;20095;-61
2021/04/17 06:42:08;;;;;;;4.93;4.53;;;;;;;;;;5133729;27;20054;-62
2021/04/17 06:44:36;;;;;;;5.03;4.25;;;;;;;;;;5149520;27;20035;-62
2021/04/17 06:47:01;;;;;;;4.28;3.65;;;;;;;;;;5151079;27;20079;-61
2021/04/17 06:49:31;;;;;;;4.53;3.70;;;;;;;;;;5150843;27;20031;-62
2021/04/17 06:52:01;;;;;;;3.75;3.03;;;;;;;;;;5151897;27;20046;-63
2021/04/17 06:54:34;;;;;;;3.17;2.97;;;;;;;;;;5150849;27;20527;-62
2021/04/17 06:57:01;;;;;;;3.47;3.28;;;;;;;;;;5150355;27;20023;-62
2021/04/17 06:59:29;;;;;;;3.55;3.25;;;;;;;;;;5150192;27;20095;-62
2021/04/17 07:01:56;;;;;;;3.72;3.30;;;;;;;;;;5151033;27;20047;-63
2021/04/17 07:04:22;;;;;;;3.15;2.92;;;;;;;;;;5151576;27;20031;-64
2021/04/17 07:06:48;;;;;;;3.53;3.22;;;;;;;;;;5150952;27;20346;-64
2021/04/17 07:09:14;;;;;;;4.07;3.25;;;;;;;;;;5131016;27;20050;-63
2021/04/17 07:11:39;;;;;;;3.40;3.10;;;;;;;;;;5150848;27;20448;-64
2021/04/17 07:14:06;;;;;;;3.72;3.38;;;;;;;;;;5150215;27;20019;-64
2021/04/17 07:16:33;;;;;;;3.88;3.33;;;;;;;;;;5145859;27;20451;-66
2021/04/17 07:18:59;;;;;;;3.55;3.25;;;;;;;;;;5151207;27;20117;-65
2021/04/17 07:21:27;;;;;;;4.53;4.13;;;;;;;;;;5133189;27;20750;-65
2021/04/17 07:23:53;;;;;;;2.95;2.75;;;;;;;;;;5150263;27;20131;-65
2021/04/17 07:26:23;;;;;;;3.40;3.10;;;;;;;;;;5132610;27;20179;-64
2021/04/17 07:28:55;;;;;;;3.55;3.25;;;;;;;;;;5132766;27;20484;-65
2021/04/17 07:31:21;;;;;;;3.38;3.08;;;;;;;;;;5152573;27;20031;-65
2021/04/17 07:33:47;;;;;;;3.78;3.47;;;;;;;;;;5152405;27;20022;-65
2021/04/17 07:36:16;;;;;;;3.13;2.65;;;;;;;;;;5152533;27;20068;-65
2021/04/17 07:38:41;;;;;;;4.28;2.70;;;;;;;;;;5132032;27;20026;-66
2021/04/17 07:41:10;;;;;;;3.45;2.95;;;;;;;;;;5151449;27;20031;-65
2021/04/17 07:43:53;;;;;;;3.03;2.83;;;;;;;;;;5131952;27;20102;-65
2021/04/17 07:46:28;;;;;;;2.95;2.75;;;;;;;;;;5151268;27;20031;-65
2021/04/17 07:49:14;;;;;;;2.78;2.58;;;;;;;;;;5147243;27;20442;-65
2021/04/17 07:51:55;;;;;;;3.95;3.65;;;;;;;;;;5127125;27;20077;-65
2021/04/17 07:54:21;;;;;;;3.30;3.10;;;;;;;;;;5146854;27;20026;-65
2021/04/17 07:56:47;;;;;;;3.38;3.08;;;;;;;;;;5146889;27;20379;-65
2021/04/17 07:59:13;;;;;;;3.47;3.17;;;;;;;;;;5146391;27;20568;-67
2021/04/17 08:01:38;;;;;;;3.08;2.80;;;;;;;;;;5146728;27;20489;-62
2021/04/17 08:04:04;;;;;;;4.18;3.67;;;;;;;;;;5128351;27;20026;-62
2021/04/17 08:06:32;;;;;;;3.92;3.53;;;;;;;;;;5128339;27;20025;-62
2021/04/17 08:08:59;;;;;;;3.47;3.22;;;;;;;;;;5127741;27;20045;-62
2021/04/17 08:11:27;;;;;;;3.13;2.90;;;;;;;;;;5147584;27;20033;-62
2021/04/17 08:13:53;;;;;;;4.00;3.58;;;;;;;;;;5147962;27;20371;-62
2021/04/17 08:16:18;;;;;;;2.92;2.65;;;;;;;;;;5146495;27;20439;-62
2021/04/17 08:18:45;;;;;;;3.17;2.95;;;;;;;;;;5146315;27;20030;-62
2021/04/17 08:21:11;;;;;;;3.80;3.42;;;;;;;;;;5147057;27;20033;-62
2021/04/17 08:23:38;;;;;;;3.33;3.03;;;;;;;;;;5146497;27;20396;-67
2021/04/17 08:26:05;;;;;;;3.17;2.88;;;;;;;;;;5148161;27;20021;-67
2021/04/17 08:28:38;;;;;;;2.80;2.60;;;;;;;;;;5114258;27;20056;-68
2021/04/17 08:31:21;;;;;;;4.05;3.63;;;;;;;;;;5113452;27;20038;-68
2021/04/17 08:34:07;;;;;;;4.68;4.28;;;;;;;;;;5149738;27;20046;-68
2021/04/17 08:36:33;;;;;;;4.47;4.07;;;;;;;;;;5149780;27;20096;-60
2021/04/17 08:39:00;;;;;;;4.07;3.67;;;;;;;;;;5148048;27;20079;-68
2021/04/17 08:41:38;;;;;;;5.45;4.78;;;;;;;;;;5149780;27;20504;-67
2021/04/17 08:44:25;;;;;;;3.95;3.65;;;;;;;;;;5150578;27;20031;-68
2021/04/17 08:46:52;;;;;;;5.03;4.50;;;;;;;;;;5150087;27;20038;-67
2021/04/17 08:49:25;;;;;;;4.85;4.35;;;;;;;;;;5149740;27;20346;-67
2021/04/17 08:51:50;;;;;;;4.68;4.28;;;;;;;;;;5150046;27;20491;-68
2021/04/17 08:54:17;;;;;;;5.03;4.63;;;;;;;;;;5149467;27;20011;-68
2021/04/17 08:56:53;;;;;;;5.70;4.90;;;;;;;;;;5130804;27;20048;-68
2021/04/17 08:59:20;;;;;;;5.07;4.57;;;;;;;;;;5130389;27;20584;-68
2021/04/17 09:01:47;;;;;;;5.43;4.93;;;;;;;;;;5149335;27;20057;-68
2021/04/17 09:04:13;;;;;;;6.03;5.07;;;;;;;;;;5149699;27;20035;-66
2021/04/17 09:06:40;;;;;;;6.90;5.03;;;;;;;;;;5148581;27;20019;-67
2021/04/17 09:09:22;;;;;;;5.30;4.80;;;;;;;;;;5128949;27;20038;-67
2021/04/17 09:11:48;;;;;;;5.43;4.93;;;;;;;;;;5148958;27;20058;-67
2021/04/17 09:14:34;;;;;;;5.15;4.68;;;;;;;;;;5148312;27;20097;-61
2021/04/17 09:17:04;;;;;;;4.85;3.83;;;;;;;;;;5148275;27;20031;-60
2021/04/17 09:19:43;;;;;;;5.13;3.90;;;;;;;;;;5147401;27;20054;-61
2021/04/17 09:22:30;;;;;;;7.80;5.90;;;;;;;;;;5148021;27;20501;-61
2021/04/17 09:25:06;;;;;;;5.68;4.78;;;;;;;;;;5129907;27;20382;-61
2021/04/17 09:27:33;;;;;;;6.32;5.28;;;;;;;;;;5148445;27;20041;-61
2021/04/17 09:30:00;;;;;;;7.25;6.53;;;;;;;;;;5147419;27;20526;-61
2021/04/17 09:32:38;;;;;;;7.45;6.60;;;;;;;;;;5147832;27;20410;-61
2021/04/17 09:35:13;;;;;;;7.38;6.38;;;;;;;;;;5148661;27;20027;-61
2021/04/17 09:37:39;;;;;;;7.00;6.18;;;;;;;;;;5148145;27;20553;-61
2021/04/17 09:40:05;;;;;;;6.28;5.45;;;;;;;;;;5129292;27;20056;-60
2021/04/17 09:42:36;;;;;;;7.35;6.10;;;;;;;;;;5147946;27;20109;-61
2021/04/17 09:45:03;;;;;;;5.13;4.63;;;;;;;;;;5129210;27;20490;-61
2021/04/17 09:47:29;;;;;;;6.40;5.57;;;;;;;;;;5129599;27;20031;-61
2021/04/17 09:49:56;;;;;;;5.70;5.20;;;;;;;;;;5147881;27;20210;-61
2021/04/17 09:52:22;;;;;;;6.22;5.63;;;;;;;;;;5147714;27;20011;-60
2021/04/17 09:54:55;;;;;;;7.20;6.53;;;;;;;;;;5130192;27;20721;-60
2021/04/17 09:57:23;;;;;;;6.30;5.70;;;;;;;;;;5148051;27;20030;-61
2021/04/17 09:59:56;;;;;;;4.53;4.13;;;;;;;;;;5128454;27;20019;-60
2021/04/17 10:02:38;;;;;;;6.13;5.25;;;;;;;;;;5148069;27;20110;-60
2021/04/17 10:05:04;;;;;;;6.03;5.32;;;;;;;;;;5148039;27;20027;-60
2021/04/17 10:07:54;;;;;;;6.85;5.72;;;;;;;;;;5147498;27;20019;-68
2021/04/17 10:10:20;;;;;;;8.50;6.85;;;;;;;;;;5147068;27;20393;-68
2021/04/17 10:12:51;;;;;;;7.63;6.72;;;;;;;;;;5148527;27;20018;-68
2021/04/17 10:15:27;;;;;;;6.93;5.93;;;;;;;;;;5111922;27;20095;-68
2021/04/17 10:17:55;;;;;;;7.75;7.00;;;;;;;;;;5148170;27;20111;-68
2021/04/17 10:20:21;;;;;;;8.70;7.18;;;;;;;;;;5150778;27;20023;-61
2021/04/17 10:22:52;;;;;;;9.15;7.82;;;;;;;;;;5132625;27;20033;-60
2021/04/17 10:25:37;;;;;;;10.25;7.50;;;;;;;;;;5151213;27;20540;-61
2021/04/17 10:28:21;;;;;;;6.90;5.72;;;;;;;;;;5150343;27;20034;-60
2021/04/17 10:30:58;;;;;;;8.30;5.90;;;;;;;;;;5150732;27;20159;-61
2021/04/17 10:33:25;;;;;;;6.90;6.20;;;;;;;;;;5151027;27;20026;-61
2021/04/17 10:35:51;;;;;;;7.53;6.20;;;;;;;;;;5150379;27;20018;-59
2021/04/17 10:38:31;;;;;;;9.20;7.13;;;;;;;;;;5151638;27;20030;-59
2021/04/17 10:40:58;;;;;;;9.02;7.32;;;;;;;;;;5150716;27;20071;-59
2021/04/17 10:43:23;;;;;;;8.45;6.85;;;;;;;;;;5150600;27;20026;-59
2021/04/17 10:45:50;;;;;;;9.07;7.18;;;;;;;;;;5150143;27;20192;-61
2021/04/17 10:48:23;;;;;;;12.52;9.20;;;;;;;;;;5151122;27;20023;-67
2021/04/17 10:50:56;;;;;;;11.63;8.80;;;;;;;;;;5151677;27;20023;-67
2021/04/17 10:53:23;;;;;;;10.43;8.45;;;;;;;;;;5151733;27;20030;-61
2021/04/17 10:55:50;;;;;;;9.82;8.10;;;;;;;;;;5132076;27;20050;-61
2021/04/17 10:58:23;;;;;;;8.23;6.22;;;;;;;;;;5150304;27;20481;-61
2021/04/17 11:00:59;;;;;;;9.80;7.70;;;;;;;;;;5148506;27;20161;-61
2021/04/17 11:03:28;;;;;;;9.43;8.20;;;;;;;;;;5150819;27;20031;-61
2021/04/17 11:05:57;;;;;;;10.18;7.65;;;;;;;;;;5150325;27;20019;-61
2021/04/17 11:08:24;;;;;;;8.93;7.38;;;;;;;;;;5131582;27;20802;-60
2021/04/17 11:10:52;;;;;;;8.18;7.40;;;;;;;;;;5131140;27;20027;-61
2021/04/17 11:13:30;;;;;;;8.75;7.28;;;;;;;;;;5150045;27;20023;-61
2021/04/17 11:15:56;;;;;;;10.77;8.60;;;;;;;;;;5149312;27;20027;-61
2021/04/17 11:18:23;;;;;;;13.25;9.80;;;;;;;;;;5150041;27;20014;-61
2021/04/17 11:20:53;;;;;;;8.63;7.68;;;;;;;;;;5149911;27;20489;-60
2021/04/17 11:23:34;;;;;;;9.18;7.32;;;;;;;;;;5150489;27;20023;-60
2021/04/17 11:26:01;;;;;;;9.20;7.57;;;;;;;;;;5130940;27;20031;-61
2021/04/17 11:28:27;;;;;;;12.25;8.82;;;;;;;;;;5149937;27;20037;-61
2021/04/17 11:30:56;;;;;;;10.52;8.60;;;;;;;;;;5148974;27;20639;-60
2021/04/17 11:33:22;;;;;;;11.00;8.40;;;;;;;;;;5150432;27;20018;-61
2021/04/17 11:35:48;;;;;;;10.00;8.35;;;;;;;;;;5149494;27;20022;-61
2021/04/17 11:38:13;;;;;;;11.73;9.30;;;;;;;;;;5131432;27;20829;-61
2021/04/17 11:40:39;;;;;;;11.68;9.10;;;;;;;;;;5149757;27;20035;-60
2021/04/17 11:43:05;;;;;;;12.40;9.35;;;;;;;;;;5149194;27;20030;-60
2021/04/17 11:45:31;;;;;;;12.73;9.82;;;;;;;;;;5149922;27;20026;-61
2021/04/17 11:47:57;;;;;;;11.13;9.38;;;;;;;;;;5149659;27;20022;-61
2021/04/17 11:50:23;;;;;;;12.65;10.05;;;;;;;;;;5149093;27;20038;-61
2021/04/17 11:52:48;;;;;;;13.60;10.15;;;;;;;;;;5130844;27;20198;-61
2021/04/17 11:55:14;;;;;;;13.80;9.80;;;;;;;;;;5131318;27;20031;-60
2021/04/17 11:57:40;;;;;;;12.20;9.90;;;;;;;;;;5129793;27;20058;-61
2021/04/17 12:00:06;;;;;;;35.90;17.88;;;;;;;;;;5145170;27;20667;-61
2021/04/17 12:02:33;;;;;;;124.45;25.45;;;;;;;;;;5148483;27;20038;-61
2021/04/17 12:04:58;;;;;;;35.47;16.48;;;;;;;;;;5149108;27;20814;-58
2021/04/17 12:07:24;;;;;;;18.27;12.23;;;;;;;;;;5149370;27;20366;-61
2021/04/17 12:09:53;;;;;;;27.65;13.02;;;;;;;;;;5148337;27;20096;-61
2021/04/17 12:12:18;;;;;;;27.40;13.57;;;;;;;;;;5148730;27;20074;-61
2021/04/17 12:14:44;;;;;;;27.02;13.05;;;;;;;;;;5148582;27;20042;-61
2021/04/17 12:17:10;;;;;;;25.02;12.20;;;;;;;;;;5129747;27;20082;-61
2021/04/17 12:19:35;;;;;;;21.73;11.68;;;;;;;;;;5147845;27;20850;-61
2021/04/17 12:22:02;;;;;;;15.98;12.15;;;;;;;;;;5149062;27;20484;-61
2021/04/17 12:24:27;;;;;;;28.08;12.70;;;;;;;;;;5130238;27;20035;-61
2021/04/17 12:26:53;;;;;;;17.90;11.73;;;;;;;;;;5148793;27;20027;-61
2021/04/17 12:29:19;;;;;;;20.98;11.40;;;;;;;;;;5148098;27;20102;-61
2021/04/17 12:31:44;;;;;;;16.52;10.85;;;;;;;;;;5149010;27;20633;-61
2021/04/17 12:34:10;;;;;;;18.77;11.00;;;;;;;;;;5148389;27;20053;-61
2021/04/17 12:36:36;;;;;;;28.67;11.43;;;;;;;;;;5148738;27;20030;-61
2021/04/17 12:39:01;;;;;;;16.67;9.63;;;;;;;;;;5148355;27;20031;-61
2021/04/17 12:41:27;;;;;;;18.23;10.20;;;;;;;;;;5148027;27;20034;-60
2021/04/17 12:43:52;;;;;;;17.48;10.35;;;;;;;;;;5147499;27;20023;-61
2021/04/17 12:46:18;;;;;;;19.05;11.50;;;;;;;;;;5148574;27;20034;-61
2021/04/17 12:48:43;;;;;;;13.82;9.40;;;;;;;;;;5129651;27;20079;-61
2021/04/17 12:51:09;;;;;;;16.58;9.80;;;;;;;;;;5128356;27;20225;-61
2021/04/17 12:53:34;;;;;;;15.93;10.35;;;;;;;;;;5129895;27;20015;-64
2021/04/17 12:56:00;;;;;;;16.58;9.18;;;;;;;;;;5146699;27;20027;-68
2021/04/17 12:58:26;;;;;;;28.45;11.38;;;;;;;;;;5147141;27;20019;-71
2021/04/17 13:00:53;;;;;;;24.48;11.18;;;;;;;;;;5125103;27;20049;-71
2021/04/17 13:03:19;;;;;;;23.73;11.00;;;;;;;;;;5126009;27;20106;-65
2021/04/17 13:05:45;;;;;;;12.25;8.88;;;;;;;;;;5126631;27;20125;-62
2021/04/17 13:08:11;;;;;;;11.32;8.50;;;;;;;;;;5127128;27;20019;-61
2021/04/17 13:10:36;;;;;;;13.50;9.13;;;;;;;;;;5123781;27;20031;-62
2021/04/17 13:13:03;;;;;;;10.30;8.07;;;;;;;;;;5126518;27;20322;-63
2021/04/17 13:15:33;;;;;;;10.20;7.15;;;;;;;;;;5126261;27;20470;-65
2021/04/17 13:17:58;;;;;;;13.65;9.63;;;;;;;;;;5125562;27;20019;-62
2021/04/17 13:20:24;;;;;;;11.60;8.38;;;;;;;;;;5126235;27;20027;-64
2021/04/17 13:22:55;;;;;;;12.00;8.77;;;;;;;;;;5126299;27;20023;-63
2021/04/17 13:25:21;;;;;;;10.85;8.57;;;;;;;;;;5124757;28;20031;-63
2021/04/17 13:27:47;;;;;;;10.25;7.93;;;;;;;;;;5125965;27;20541;-59
2021/04/17 13:30:13;;;;;;;13.68;8.88;;;;;;;;;;5125222;28;20023;-57
2021/04/17 13:32:38;;;;;;;10.75;8.25;;;;;;;;;;5125415;28;20015;-57
2021/04/17 13:35:04;;;;;;;11.07;8.02;;;;;;;;;;5126306;27;20686;-57
2021/04/17 13:37:29;;;;;;;10.50;8.40;;;;;;;;;;5125746;27;20860;-57
2021/04/17 13:39:55;;;;;;;9.90;7.20;;;;;;;;;;5125385;27;20113;-63
2021/04/17 13:42:20;;;;;;;10.07;7.90;;;;;;;;;;5126604;27;20408;-62
2021/04/17 13:44:48;;;;;;;11.02;7.60;;;;;;;;;;5126100;27;20032;-62
2021/04/17 13:47:15;;;;;;;10.70;8.68;;;;;;;;;;5124186;28;20497;-63
2021/04/17 13:49:42;;;;;;;9.27;8.20;;;;;;;;;;5125260;28;20062;-63
2021/04/17 13:52:07;;;;;;;10.90;8.18;;;;;;;;;;5124432;28;20729;-63
2021/04/17 13:54:33;;;;;;;9.77;8.50;;;;;;;;;;5126991;27;20026;-63
2021/04/17 13:56:58;;;;;;;10.88;8.63;;;;;;;;;;5130253;27;20018;-63
2021/04/17 13:59:24;;;;;;;11.13;8.68;;;;;;;;;;5126542;27;20031;-63
2021/04/17 14:01:49;;;;;;;12.90;9.45;;;;;;;;;;5131806;27;20055;-61
2021/04/17 14:04:19;;;;;;;13.68;10.80;;;;;;;;;;5133044;27;20080;-61
2021/04/17 14:06:46;;;;;;;12.70;9.32;;;;;;;;;;5132633;27;20088;-61
2021/04/17 14:09:13;;;;;;;12.05;8.85;;;;;;;;;;5131805;27;20034;-61
2021/04/17 14:11:41;;;;;;;10.50;8.80;;;;;;;;;;5131142;27;20110;-61
2021/04/17 14:14:08;;;;;;;15.07;11.15;;;;;;;;;;5131885;27;20027;-59
2021/04/17 14:16:34;;;;;;;11.40;9.35;;;;;;;;;;5133415;27;20060;-58
2021/04/17 14:18:59;;;;;;;12.13;8.90;;;;;;;;;;5137918;27;20042;-58
2021/04/17 14:21:25;;;;;;;12.02;8.05;;;;;;;;;;5135715;27;20387;-58
2021/04/17 14:23:51;;;;;;;8.45;7.60;;;;;;;;;;5135435;27;20077;-58
2021/04/17 14:26:17;;;;;;;12.23;8.98;;;;;;;;;;5135750;27;20019;-58
2021/04/17 14:28:44;;;;;;;12.63;9.13;;;;;;;;;;5130005;27;20892;-58
2021/04/17 14:31:09;;;;;;;12.60;9.75;;;;;;;;;;5134355;27;20022;-58
2021/04/17 14:33:36;;;;;;;11.88;9.27;;;;;;;;;;5132323;27;20394;-57
2021/04/17 14:36:01;;;;;;;12.05;8.82;;;;;;;;;;5133659;27;20019;-57
2021/04/17 14:38:27;;;;;;;11.65;9.57;;;;;;;;;;5133528;27;20068;-58
2021/04/17 14:40:53;;;;;;;10.85;6.68;;;;;;;;;;5133796;27;20015;-57